Glastonbury, Connecticut
Current Conditions -  °F | °C
As of 11:53 AM on Sunday 23 Nov 2014 (Local Time) from KHFD Reporting Station
Broken Clouds Broken Clouds  
Wind Chill: 54°   Ceiling: 7000
Heat Index: 54°   Visibility: 10mi
Dew Point: 25°   Wind: 7mph
Humidity: 33%   Direction: 200°SSW
Pressure: 30.13"   Gusts: NA
Location:  41.71°N, 72.61°W
Report Text: KHFD 231653Z 20006KT 10SM BKN070 BKN090 12/M04 A3013 RMK AO2 PRESFR SLP203 T01221039
Loading
Personal Weather Stations






























Interactive Weather Map New forecast layout! Learn more

10-Day Weather Forecast

Advertisements
Track Severe Weather on mobile